Don Miguel Hidalgo Y Costilla International Airport
MMGL : now visible

Airfield :











YOU CAN JOIN US ON...

 
LOGIN :

Register | Disclaimer

   EN    FR    IT 

 









Legend :    VFR   Marginal VFR   IFR   Intensive IFR   Very Intensive IFR
Visi :
Ceiling :
>= 8 km
>= 3000ft
5 to 8 km
1000 to 3000 ft
1500m to 5 km
500 to 1000 ft
800 to 1500m
200 to 500 ft
< 800m
< 200 ft
Symbols :   Thunderstorms  Fog  Heavy snow  Heavy precipitations  Wind > 20 kt






- Airport Elevation : 5016 ft
- IATA code : GDL


MMGL - Don Miguel Hidalgo Y Costilla International

CURRENT METAR :
  • 080343Z 00000KT 10SM SCT100 21/16 A3015 RMK 8/030 SC DSNT LTGIC S

EXPIRED METARs :
  • 080245Z 00000KT 10SM SCT030 BKN100 22/17 A3013 RMK SLP098 52010 914 8/530
  • 080144Z 27003KT 8SM SCT030 BKN100 24/16 A3011 RMK 8/530 CI

TAF TAF MMGL
Valid from the 08 at 00:00 until the 09 at 06:00 UTC


072313Z 0800/0906 22008KT P6SM SCT020 BKN080 BKN200 TN14/0812Z TX27/0821Z
FM080300 27008KT P6SM -RA BKN020CB
TEMPO 0804/0808 3SM TSRA BKN010 OVC020CB
FM081000 00000KT 5SM -RA SCT010 BKN020 OVC080
FM081600 26008KT P6SM BKN025 BKN080
BECMG 0821/0822 6SM -RA BKN025CB
TEMPO 0822/0902 4SM TSRA
FM090200 00000KT 5SM RA BKN015CB OVC080
TEMPO 0902/0906 3SM TSRA TSRA
MMFR FIR / North America



MET'MAP, your aeronautical weather chart ! - Copyright ORBIFLY December 2007 - Disclaimer

ORBIFLY MET'MAP TEAM :

Programming & Development : Alexandra Zaïnal
Concept & original design : Baudouin d'Aumeries
Assistance for programming : Marc-Olivier Méhu
Technical & hardware support : Manuel Goepfert

Contact : metmap@orbifly.com




SOURCES & CREDITS :

   NOAA       Earth
Advisory